Time;durP1;ratioP1;P1;durP2;ratioP2;P2;SDS_P1;SDS_P2;PMS_P1;PMS_P2;Temp;Humidity;BMP_temperature;BMP_pressure;BME280_temperature;BME280_humidity;BME280_pressure;Samples;Min_cycle;Max_cycle;Signal;HPM_P1;HPM_P2
2021/11/06 00:01:52;;;;;;;7.95;1.50;;;9.30;99.90;;;;;;5017784;28;20373;-73
2021/11/06 00:04:18;;;;;;;6.80;1.50;;;9.30;99.90;;;;;;5000661;28;20080;-72
2021/11/06 00:06:44;;;;;;;6.80;1.67;;;9.30;99.90;;;;;;5018476;28;20427;-72
2021/11/06 00:09:11;;;;;;;6.88;1.20;;;9.30;99.90;;;;;;5020110;28;20475;-73
2021/11/06 00:11:37;;;;;;;4.40;1.13;;;9.30;99.90;;;;;;5020697;28;20451;-72
2021/11/06 00:14:02;;;;;;;13.02;2.17;;;9.20;99.90;;;;;;5020564;28;20040;-73
2021/11/06 00:16:28;;;;;;;10.80;1.58;;;9.20;99.90;;;;;;5018889;28;20040;-74
2021/11/06 00:18:54;;;;;;;7.95;1.25;;;9.20;99.90;;;;;;5021628;28;20029;-72
2021/11/06 00:21:20;;;;;;;7.63;1.50;;;9.20;99.90;;;;;;5020262;28;20042;-72
2021/11/06 00:23:46;;;;;;;4.45;1.50;;;9.20;99.90;;;;;;4998855;28;20072;-72
2021/11/06 00:26:11;;;;;;;7.93;1.95;;;9.20;99.90;;;;;;5018299;28;20030;-74
2021/11/06 00:28:37;;;;;;;5.85;1.40;;;9.30;99.90;;;;;;5020061;28;20167;-74
2021/11/06 00:31:03;;;;;;;4.20;1.60;;;9.30;99.90;;;;;;5021038;28;20041;-74
2021/11/06 00:33:29;;;;;;;4.55;1.20;;;9.30;99.90;;;;;;5020817;28;20225;-73
2021/11/06 00:35:54;;;;;;;2.67;1.20;;;9.30;99.90;;;;;;5020325;28;20511;-72
2021/11/06 00:38:20;;;;;;;5.20;1.50;;;9.30;99.90;;;;;;5001604;28;20061;-72
2021/11/06 00:40:46;;;;;;;5.88;1.55;;;9.30;99.90;;;;;;5019091;28;20076;-72
2021/11/06 00:43:12;;;;;;;7.88;1.80;;;9.30;99.90;;;;;;4998710;28;20120;-73
2021/11/06 00:45:37;;;;;;;4.22;1.30;;;9.30;99.90;;;;;;5020811;28;20041;-72
2021/11/06 00:48:03;;;;;;;9.07;1.60;;;9.30;99.90;;;;;;5020703;28;20048;-72
2021/11/06 00:50:29;;;;;;;5.10;1.40;;;9.30;99.90;;;;;;5000651;28;20076;-73
2021/11/06 00:52:55;;;;;;;8.02;1.50;;;9.30;99.90;;;;;;5019094;28;20118;-72
2021/11/06 00:55:21;;;;;;;5.28;1.38;;;9.30;99.90;;;;;;5002014;28;20491;-72
2021/11/06 00:57:48;;;;;;;7.47;1.58;;;9.20;99.90;;;;;;4996634;28;20060;-73
2021/11/06 01:00:15;;;;;;;6.13;1.40;;;9.20;99.90;;;;;;5018872;28;20333;-74
2021/11/06 01:02:41;;;;;;;7.78;1.48;;;9.30;99.90;;;;;;5018355;28;20030;-73
2021/11/06 01:05:09;;;;;;;6.05;1.40;;;9.20;99.90;;;;;;5000862;28;20549;-73
2021/11/06 01:07:35;;;;;;;7.75;1.40;;;9.20;99.90;;;;;;5016811;28;20068;-73
2021/11/06 01:10:03;;;;;;;9.80;1.70;;;9.20;99.90;;;;;;5002932;28;20054;-72
2021/11/06 01:12:29;;;;;;;7.15;1.30;;;9.20;99.90;;;;;;5015976;28;20402;-72
2021/11/06 01:14:55;;;;;;;3.95;1.40;;;9.20;99.90;;;;;;5019432;28;20064;-72
2021/11/06 01:17:20;;;;;;;8.27;1.50;;;9.20;99.90;;;;;;5001320;28;20052;-73
2021/11/06 01:19:46;;;;;;;4.20;0.90;;;9.20;99.90;;;;;;5020248;28;20034;-72
2021/11/06 01:22:12;;;;;;;5.45;2.00;;;9.20;99.90;;;;;;5017042;28;20033;-73
2021/11/06 01:24:37;;;;;;;5.75;1.20;;;9.20;99.90;;;;;;5016939;28;20357;-72
2021/11/06 01:27:04;;;;;;;5.50;1.58;;;9.20;99.90;;;;;;5018515;28;20053;-72
2021/11/06 01:29:30;;;;;;;6.68;1.70;;;9.20;99.90;;;;;;5018600;28;20104;-73
2021/11/06 01:31:55;;;;;;;7.05;1.40;;;9.20;99.90;;;;;;4997988;28;20495;-73
2021/11/06 01:34:21;;;;;;;7.10;1.52;;;9.10;99.90;;;;;;4999766;28;20500;-72
2021/11/06 01:36:46;;;;;;;5.22;1.35;;;9.10;99.90;;;;;;5020760;28;20029;-72
2021/11/06 01:39:12;;;;;;;4.47;1.50;;;9.10;99.90;;;;;;5002973;28;20160;-73
2021/11/06 01:41:38;;;;;;;4.80;1.23;;;9.20;99.90;;;;;;5017854;28;20133;-72
2021/11/06 01:44:04;;;;;;;7.60;1.58;;;9.10;99.90;;;;;;5017289;28;20191;-73
2021/11/06 01:46:30;;;;;;;7.78;1.52;;;9.10;99.90;;;;;;5018923;28;20028;-74
2021/11/06 01:48:56;;;;;;;2.97;1.10;;;9.20;99.90;;;;;;5017596;28;20033;-73
2021/11/06 01:51:22;;;;;;;5.60;1.27;;;9.10;99.90;;;;;;5001058;28;20503;-73
2021/11/06 01:53:49;;;;;;;4.07;1.20;;;9.10;99.90;;;;;;5020299;28;20103;-73
2021/11/06 01:56:15;;;;;;;4.63;1.20;;;9.10;99.90;;;;;;5020137;28;20037;-72
2021/11/06 01:58:43;;;;;;;9.98;1.05;;;9.10;99.90;;;;;;5018478;28;20053;-73
2021/11/06 02:01:09;;;;;;;4.35;1.27;;;9.10;99.90;;;;;;5017540;28;20499;-73
2021/11/06 02:03:35;;;;;;;4.57;1.50;;;9.10;99.90;;;;;;5002714;28;20030;-73
2021/11/06 02:06:01;;;;;;;7.80;1.63;;;9.10;99.90;;;;;;5017393;28;20049;-73
2021/11/06 02:08:27;;;;;;;6.03;1.27;;;9.10;99.90;;;;;;5015915;28;20025;-73
2021/11/06 02:10:53;;;;;;;4.65;1.23;;;9.10;99.90;;;;;;5017091;28;20013;-73
2021/11/06 02:13:19;;;;;;;7.65;1.63;;;9.20;99.90;;;;;;5015583;28;20026;-72
2021/11/06 02:15:46;;;;;;;6.82;1.33;;;9.20;99.90;;;;;;5016493;28;20121;-72
2021/11/06 02:18:12;;;;;;;3.55;1.50;;;9.10;99.90;;;;;;5019943;28;20038;-73
2021/11/06 02:20:42;;;;;;;5.95;1.27;;;9.10;99.90;;;;;;5016632;28;20037;-73
2021/11/06 02:23:07;;;;;;;3.47;1.63;;;9.10;99.90;;;;;;5017556;28;20048;-73
2021/11/06 02:25:33;;;;;;;8.30;1.67;;;9.10;99.90;;;;;;5016774;28;20025;-73
2021/11/06 02:27:59;;;;;;;5.40;1.42;;;9.10;99.90;;;;;;5018900;28;20025;-73
2021/11/06 02:30:25;;;;;;;6.65;1.77;;;9.20;99.90;;;;;;5015799;28;20083;-73
2021/11/06 02:32:52;;;;;;;5.28;1.70;;;9.10;99.90;;;;;;5019015;28;20098;-73
2021/11/06 02:35:19;;;;;;;3.05;1.30;;;9.10;99.90;;;;;;5018475;28;20106;-73
2021/11/06 02:37:44;;;;;;;5.13;1.25;;;9.10;99.90;;;;;;5018990;28;20109;-73
2021/11/06 02:40:11;;;;;;;5.22;1.60;;;9.10;99.90;;;;;;5015855;28;20124;-73
2021/11/06 02:42:37;;;;;;;7.85;2.33;;;9.10;99.90;;;;;;5019770;28;20053;-73
2021/11/06 02:45:07;;;;;;;6.18;1.50;;;9.10;99.90;;;;;;5016786;28;20033;-73
2021/11/06 02:47:33;;;;;;;6.57;1.52;;;9.10;99.90;;;;;;5005646;28;20022;-73
2021/11/06 02:49:59;;;;;;;5.60;1.55;;;9.10;99.90;;;;;;5019327;28;20085;-73
2021/11/06 02:52:25;;;;;;;4.05;1.10;;;9.10;99.90;;;;;;5015876;28;20547;-73
2021/11/06 02:54:51;;;;;;;6.50;1.60;;;9.00;99.90;;;;;;5001850;28;20117;-72
2021/11/06 02:57:16;;;;;;;4.10;1.20;;;9.10;99.90;;;;;;5018066;28;20045;-73
2021/11/06 02:59:42;;;;;;;4.88;1.60;;;9.10;99.90;;;;;;5017759;28;20069;-72
2021/11/06 03:02:08;;;;;;;4.53;1.35;;;9.10;99.90;;;;;;5017088;28;20076;-73
2021/11/06 03:04:36;;;;;;;5.32;1.52;;;9.20;99.90;;;;;;5015345;28;20026;-73
2021/11/06 03:07:02;;;;;;;8.52;2.45;;;9.10;99.90;;;;;;5016617;28;20026;-73
2021/11/06 03:09:28;;;;;;;8.38;2.15;;;9.10;99.90;;;;;;5016932;28;20398;-73
2021/11/06 03:11:54;;;;;;;8.10;2.10;;;9.10;99.90;;;;;;4999385;28;20117;-73
2021/11/06 03:14:22;;;;;;;3.78;1.40;;;9.10;99.90;;;;;;5018750;28;20037;-73
2021/11/06 03:16:47;;;;;;;7.13;1.65;;;9.10;99.90;;;;;;5000667;28;20029;-73
2021/11/06 03:19:13;;;;;;;5.80;1.30;;;9.10;99.90;;;;;;5017737;28;20036;-73
2021/11/06 03:21:39;;;;;;;4.13;1.73;;;9.10;99.90;;;;;;5014028;28;20080;-73
2021/11/06 03:24:05;;;;;;;4.30;1.58;;;9.00;99.90;;;;;;5016218;28;20033;-74
2021/11/06 03:26:31;;;;;;;4.80;1.65;;;9.10;99.90;;;;;;5016175;28;20026;-73
2021/11/06 03:28:57;;;;;;;6.80;1.83;;;9.00;99.90;;;;;;5015428;28;20096;-73
2021/11/06 03:31:23;;;;;;;4.82;2.00;;;9.00;99.90;;;;;;5017044;28;20064;-73
2021/11/06 03:33:48;;;;;;;6.97;2.35;;;9.00;99.90;;;;;;5016139;28;20029;-73
2021/11/06 03:36:14;;;;;;;6.55;1.50;;;8.90;99.90;;;;;;5018598;28;20155;-73
2021/11/06 03:38:40;;;;;;;4.95;1.50;;;8.90;99.90;;;;;;5020551;28;20116;-73
2021/11/06 03:41:06;;;;;;;6.75;1.77;;;8.90;99.90;;;;;;5019857;28;20089;-73
2021/11/06 03:43:31;;;;;;;7.03;1.83;;;8.80;99.90;;;;;;5019656;28;20076;-73
2021/11/06 03:45:57;;;;;;;9.10;1.85;;;8.80;99.90;;;;;;5021367;28;20059;-73
2021/11/06 03:48:23;;;;;;;7.20;2.15;;;8.80;99.90;;;;;;5021181;28;20443;-73
2021/11/06 03:50:48;;;;;;;8.55;2.10;;;8.80;99.90;;;;;;5019457;28;20053;-73
2021/11/06 03:53:14;;;;;;;4.68;2.28;;;8.80;99.90;;;;;;5003123;28;20092;-73
2021/11/06 03:55:40;;;;;;;4.57;1.83;;;8.70;99.90;;;;;;5001730;28;20030;-73
2021/11/06 03:58:06;;;;;;;7.90;1.90;;;8.70;99.90;;;;;;5018350;28;20021;-73
2021/11/06 04:00:31;;;;;;;4.40;2.00;;;8.70;99.90;;;;;;5019072;28;20083;-73
2021/11/06 04:02:57;;;;;;;5.90;2.03;;;8.80;99.90;;;;;;5004497;28;20037;-73
2021/11/06 04:05:23;;;;;;;8.10;2.33;;;8.70;99.90;;;;;;5020132;28;20139;-73
2021/11/06 04:07:49;;;;;;;7.18;2.20;;;8.70;99.90;;;;;;5019647;28;20391;-73
2021/11/06 04:10:14;;;;;;;5.40;2.22;;;8.70;99.90;;;;;;5019770;28;20188;-73
2021/11/06 04:12:40;;;;;;;9.65;2.70;;;8.70;99.90;;;;;;5019255;28;20025;-73
2021/11/06 04:15:08;;;;;;;8.68;2.58;;;8.70;99.90;;;;;;5021932;28;20033;-73
2021/11/06 04:17:34;;;;;;;6.18;2.60;;;8.70;99.90;;;;;;5022271;28;20180;-73
2021/11/06 04:20:00;;;;;;;5.90;2.33;;;8.70;99.90;;;;;;5002552;28;20511;-74
2021/11/06 04:22:25;;;;;;;6.50;2.60;;;8.70;99.90;;;;;;5003891;28;20034;-74
2021/11/06 04:24:51;;;;;;;6.47;2.53;;;8.70;99.90;;;;;;5019507;28;20026;-73
2021/11/06 04:27:17;;;;;;;8.23;2.55;;;8.70;99.90;;;;;;5018292;28;20056;-73
2021/11/06 04:29:43;;;;;;;6.63;2.80;;;8.70;99.90;;;;;;5018977;28;20030;-73
2021/11/06 04:32:08;;;;;;;9.85;2.60;;;8.70;99.90;;;;;;5019742;28;20029;-73
2021/11/06 04:34:34;;;;;;;9.10;2.90;;;8.70;99.90;;;;;;5019309;28;20046;-73
2021/11/06 04:37:00;;;;;;;4.70;2.58;;;8.70;99.90;;;;;;5020033;28;20030;-74
2021/11/06 04:39:26;;;;;;;7.88;2.60;;;8.70;99.90;;;;;;5003326;28;20032;-73
2021/11/06 04:41:51;;;;;;;8.10;3.22;;;8.70;99.90;;;;;;5020350;28;20029;-73
2021/11/06 04:44:17;;;;;;;7.00;3.10;;;8.70;99.90;;;;;;5018140;28;20458;-73
2021/11/06 04:46:43;;;;;;;7.68;3.30;;;8.70;99.90;;;;;;5018462;28;20080;-73
2021/11/06 04:49:09;;;;;;;6.72;3.97;;;8.70;99.90;;;;;;5019230;28;20124;-73
2021/11/06 04:51:34;;;;;;;9.65;4.38;;;8.70;99.90;;;;;;5019601;28;20029;-73
2021/11/06 04:54:00;;;;;;;8.70;3.63;;;8.60;99.90;;;;;;5019121;28;20033;-73
2021/11/06 04:56:27;;;;;;;8.07;3.53;;;8.60;99.90;;;;;;5020287;28;20117;-74
2021/11/06 04:58:52;;;;;;;8.55;3.78;;;8.70;99.90;;;;;;5018171;28;20061;-74
2021/11/06 05:01:18;;;;;;;12.70;4.63;;;8.70;99.90;;;;;;5020880;28;20464;-73
2021/11/06 05:03:44;;;;;;;9.55;3.90;;;8.70;99.90;;;;;;5019059;28;20037;-73
2021/11/06 05:06:10;;;;;;;9.23;4.03;;;8.70;99.90;;;;;;5001316;28;20029;-73
2021/11/06 05:08:36;;;;;;;5.90;4.03;;;8.70;99.90;;;;;;5022686;28;20029;-74
2021/11/06 05:11:02;;;;;;;9.77;4.35;;;8.70;99.90;;;;;;5018720;28;20036;-73
2021/11/06 05:13:27;;;;;;;6.07;3.97;;;8.80;99.90;;;;;;5020773;28;20118;-73
2021/11/06 05:15:53;;;;;;;11.02;4.80;;;8.80;99.90;;;;;;5015598;28;20101;-73
2021/11/06 05:18:20;;;;;;;11.75;4.97;;;8.80;99.90;;;;;;4999303;28;20031;-73
2021/11/06 05:20:46;;;;;;;10.30;5.13;;;8.80;99.90;;;;;;5018098;28;20021;-74
2021/11/06 05:23:13;;;;;;;12.35;4.75;;;8.80;99.90;;;;;;5013828;28;20025;-74
2021/11/06 05:25:41;;;;;;;6.35;4.28;;;8.70;99.90;;;;;;5017042;28;20094;-73
2021/11/06 05:28:07;;;;;;;8.48;4.95;;;8.70;99.90;;;;;;5014457;28;20105;-73
2021/11/06 05:30:33;;;;;;;12.93;5.68;;;8.70;99.90;;;;;;5014270;28;20108;-73
2021/11/06 05:32:59;;;;;;;9.50;4.78;;;8.60;99.90;;;;;;5019056;28;20022;-74
2021/11/06 05:35:25;;;;;;;10.80;4.50;;;8.60;99.90;;;;;;5024971;28;20029;-73
2021/11/06 05:37:51;;;;;;;9.45;4.72;;;8.70;99.90;;;;;;4994380;28;20030;-74
2021/11/06 05:40:16;;;;;;;8.55;4.93;;;8.60;99.90;;;;;;5009468;28;20497;-74
2021/11/06 05:42:42;;;;;;;11.95;5.85;;;8.60;99.90;;;;;;5019922;28;20029;-74
2021/11/06 05:45:11;;;;;;;9.93;5.55;;;8.60;99.90;;;;;;5007910;28;20030;-74
2021/11/06 05:47:37;;;;;;;9.85;5.40;;;8.60;99.90;;;;;;5015781;28;20022;-74
2021/11/06 05:50:05;;;;;;;10.27;5.53;;;8.60;99.90;;;;;;5014787;28;20026;-73
2021/11/06 05:52:31;;;;;;;12.85;5.78;;;8.60;99.90;;;;;;5000058;28;20040;-73
2021/11/06 05:54:57;;;;;;;8.82;5.55;;;8.60;99.90;;;;;;5018858;28;20030;-73
2021/11/06 05:57:22;;;;;;;11.70;5.90;;;8.70;99.90;;;;;;5012189;28;20033;-73
2021/11/06 05:59:48;;;;;;;9.35;5.13;;;8.70;99.90;;;;;;5008173;28;20091;-73
2021/11/06 06:02:14;;;;;;;11.40;5.75;;;8.70;99.90;;;;;;5014466;28;20503;-74
2021/11/06 06:04:39;;;;;;;10.88;5.80;;;8.70;99.90;;;;;;5020384;28;20464;-73
2021/11/06 06:07:05;;;;;;;10.77;5.55;;;8.60;99.90;;;;;;5009473;28;20044;-73
2021/11/06 06:09:31;;;;;;;15.23;6.55;;;8.60;99.90;;;;;;4997175;28;20030;-73
2021/11/06 06:11:57;;;;;;;11.63;5.63;;;8.60;99.90;;;;;;5001388;28;20418;-73
2021/11/06 06:14:22;;;;;;;10.13;5.90;;;8.60;99.90;;;;;;5015442;28;20480;-73
2021/11/06 06:16:48;;;;;;;15.55;6.70;;;8.60;99.90;;;;;;5017606;28;20484;-73
2021/11/06 06:19:14;;;;;;;9.98;5.85;;;8.60;99.90;;;;;;5012674;28;20037;-73
2021/11/06 06:21:39;;;;;;;13.55;5.63;;;8.60;99.90;;;;;;5022107;28;20036;-73
2021/11/06 06:24:05;;;;;;;9.43;6.03;;;8.60;99.90;;;;;;4995467;28;20480;-74
2021/11/06 06:26:31;;;;;;;9.10;5.65;;;8.50;99.90;;;;;;5021742;28;20032;-73
2021/11/06 06:28:56;;;;;;;14.52;6.15;;;8.60;99.90;;;;;;4998991;28;20041;-73
2021/11/06 06:31:22;;;;;;;16.45;6.78;;;8.60;99.90;;;;;;4999517;28;20030;-73
2021/11/06 06:33:48;;;;;;;11.65;6.57;;;8.50;99.90;;;;;;5015658;28;20091;-73
2021/11/06 06:36:14;;;;;;;17.88;7.85;;;8.50;99.90;;;;;;5000759;28;20117;-73
2021/11/06 06:38:40;;;;;;;11.20;6.75;;;8.50;99.90;;;;;;5013217;28;20117;-73
2021/11/06 06:41:05;;;;;;;12.80;6.68;;;8.50;99.90;;;;;;5017991;28;20100;-73
2021/11/06 06:43:32;;;;;;;11.15;6.78;;;8.50;99.90;;;;;;5004535;28;20018;-74
2021/11/06 06:45:58;;;;;;;10.88;6.85;;;8.50;99.90;;;;;;5013293;28;20828;-73
2021/11/06 06:48:24;;;;;;;9.32;6.45;;;8.50;99.90;;;;;;5013666;28;20522;-73
2021/11/06 06:50:50;;;;;;;10.52;6.72;;;8.50;99.90;;;;;;5014107;28;20029;-73
2021/11/06 06:53:20;;;;;;;9.73;6.28;;;8.60;99.90;;;;;;5016763;28;20024;-73
2021/11/06 06:55:47;;;;;;;12.30;7.30;;;8.60;99.90;;;;;;5014111;28;20018;-74
2021/11/06 06:58:12;;;;;;;12.40;7.20;;;8.50;99.90;;;;;;5011777;28;20044;-73
2021/11/06 07:00:38;;;;;;;13.52;7.50;;;8.50;99.90;;;;;;5015303;28;21434;-74
2021/11/06 07:03:04;;;;;;;14.57;7.55;;;8.60;99.90;;;;;;5000648;28;20112;-73
2021/11/06 07:05:30;;;;;;;14.20;7.90;;;8.50;99.90;;;;;;5013536;28;20033;-73
2021/11/06 07:07:57;;;;;;;14.93;7.32;;;8.50;99.90;;;;;;5016597;28;20018;-73
2021/11/06 07:10:24;;;;;;;10.25;6.97;;;8.60;99.90;;;;;;5015873;28;20025;-74
2021/11/06 07:12:49;;;;;;;11.05;7.07;;;8.60;99.90;;;;;;5004544;28;20033;-74
2021/11/06 07:15:15;;;;;;;16.85;8.15;;;8.60;99.90;;;;;;5019682;28;20026;-74
2021/11/06 07:17:41;;;;;;;11.45;7.43;;;8.60;99.90;;;;;;5015568;28;20026;-73
2021/11/06 07:20:09;;;;;;;16.80;7.60;;;8.70;99.90;;;;;;5017872;28;20045;-74
2021/11/06 07:22:36;;;;;;;13.88;8.48;;;8.70;99.90;;;;;;5012711;28;20029;-74
2021/11/06 07:25:03;;;;;;;17.85;8.02;;;8.70;99.90;;;;;;5017953;28;20021;-74
2021/11/06 07:27:31;;;;;;;13.32;8.02;;;8.70;99.90;;;;;;5016729;28;20543;-74
2021/11/06 07:29:57;;;;;;;18.48;10.38;;;8.70;99.90;;;;;;5019901;28;20097;-73
2021/11/06 07:32:23;;;;;;;16.73;8.60;;;8.70;99.90;;;;;;5019123;28;20017;-74
2021/11/06 07:34:49;;;;;;;19.90;9.98;;;8.70;99.90;;;;;;5029892;28;20021;-73
2021/11/06 07:37:14;;;;;;;15.05;9.38;;;8.80;99.90;;;;;;5016295;28;20500;-75
2021/11/06 07:39:40;;;;;;;22.15;9.05;;;8.80;99.90;;;;;;4993465;28;20053;-74
2021/11/06 07:42:06;;;;;;;17.33;8.95;;;8.90;99.90;;;;;;5021008;28;20037;-74
2021/11/06 07:44:32;;;;;;;15.57;9.15;;;8.90;99.90;;;;;;5012543;28;20029;-75
2021/11/06 07:46:57;;;;;;;16.75;10.68;;;8.90;99.90;;;;;;5028352;28;20033;-74
2021/11/06 07:49:25;;;;;;;16.10;9.82;;;9.00;99.90;;;;;;5022380;28;20101;-73
2021/11/06 07:51:51;;;;;;;21.85;10.95;;;9.00;99.90;;;;;;5019325;28;20037;-73
2021/11/06 07:54:17;;;;;;;25.35;12.00;;;9.00;99.90;;;;;;5017335;28;20483;-73
2021/11/06 07:56:44;;;;;;;21.80;12.07;;;9.00;99.90;;;;;;5015434;28;20037;-73
2021/11/06 07:59:09;;;;;;;22.33;12.65;;;9.00;99.90;;;;;;5022163;28;20448;-73
2021/11/06 08:01:35;;;;;;;22.20;12.65;;;9.00;99.90;;;;;;5016792;28;20065;-74
2021/11/06 08:04:01;;;;;;;23.83;13.40;;;9.00;99.90;;;;;;5021442;28;20101;-73
2021/11/06 08:06:27;;;;;;;21.90;13.85;;;9.00;99.90;;;;;;5022865;28;20093;-73
2021/11/06 08:08:53;;;;;;;19.15;12.88;;;9.00;99.90;;;;;;5006192;28;20086;-73
2021/11/06 08:11:18;;;;;;;25.05;14.30;;;9.00;99.90;;;;;;5017706;28;20029;-71
2021/11/06 08:13:44;;;;;;;27.90;14.75;;;9.00;99.90;;;;;;5004813;28;20033;-72
2021/11/06 08:16:10;;;;;;;23.80;15.18;;;9.10;99.90;;;;;;5014090;28;20083;-72
2021/11/06 08:18:35;;;;;;;28.40;16.98;;;9.10;99.90;;;;;;5015915;28;20046;-73
2021/11/06 08:21:01;;;;;;;26.00;16.20;;;9.10;99.90;;;;;;5020048;28;20048;-72
2021/11/06 08:23:27;;;;;;;31.40;18.48;;;9.20;99.90;;;;;;5017031;28;20096;-73
2021/11/06 08:25:52;;;;;;;30.58;18.90;;;9.20;99.90;;;;;;5003255;28;20117;-72
2021/11/06 08:28:18;;;;;;;32.30;18.58;;;9.20;99.90;;;;;;5014756;28;20026;-72
2021/11/06 08:30:44;;;;;;;33.80;20.45;;;9.30;99.90;;;;;;5017761;28;20052;-73
2021/11/06 08:33:10;;;;;;;45.72;19.98;;;9.30;99.90;;;;;;5017268;28;20037;-72
2021/11/06 08:35:37;;;;;;;34.85;20.60;;;9.30;99.90;;;;;;5014592;28;20279;-70
2021/11/06 08:38:04;;;;;;;34.00;20.10;;;9.30;99.90;;;;;;5016926;28;20034;-73
2021/11/06 08:40:30;;;;;;;33.47;19.98;;;9.40;99.90;;;;;;5016708;28;20034;-75
2021/11/06 08:42:57;;;;;;;34.88;21.48;;;9.40;99.90;;;;;;5009729;28;20066;-78
2021/11/06 08:45:23;;;;;;;33.17;21.33;;;9.30;99.90;;;;;;5017873;28;20062;-73
2021/11/06 08:47:49;;;;;;;36.28;21.65;;;9.30;99.90;;;;;;5019636;28;20049;-73
2021/11/06 08:50:19;;;;;;;34.70;20.80;;;9.30;99.90;;;;;;5001495;28;20036;-74
2021/11/06 08:52:45;;;;;;;39.20;20.63;;;9.30;99.90;;;;;;5016873;28;20049;-73
2021/11/06 08:55:12;;;;;;;30.10;19.88;;;9.30;99.90;;;;;;5003220;28;20056;-72
2021/11/06 08:57:40;;;;;;;34.92;21.50;;;9.40;99.90;;;;;;5021404;28;20472;-73
2021/11/06 09:00:10;;;;;;;34.88;21.40;;;9.40;99.90;;;;;;4997471;28;20037;-73
2021/11/06 09:02:37;;;;;;;34.03;20.58;;;9.50;99.90;;;;;;5019308;28;20483;-72
2021/11/06 09:05:06;;;;;;;36.47;20.67;;;9.50;99.90;;;;;;5018267;28;20041;-74
2021/11/06 09:07:33;;;;;;;33.60;21.33;;;9.60;99.90;;;;;;5019610;28;20307;-76
2021/11/06 09:10:00;;;;;;;33.08;21.52;;;9.50;99.90;;;;;;5017135;28;20022;-73
2021/11/06 09:12:27;;;;;;;34.05;22.13;;;9.50;99.90;;;;;;4985702;28;20031;-76
2021/11/06 09:14:53;;;;;;;37.17;23.20;;;9.50;99.90;;;;;;5018754;28;20536;-73
2021/11/06 09:17:19;;;;;;;27.38;20.27;;;9.50;99.90;;;;;;5000077;28;20044;-72
2021/11/06 09:19:45;;;;;;;35.00;22.50;;;9.60;99.90;;;;;;5016771;28;20025;-74
2021/11/06 09:22:11;;;;;;;30.13;21.45;;;9.70;99.90;;;;;;5002764;28;20116;-73
2021/11/06 09:24:37;;;;;;;32.15;20.48;;;9.70;99.90;;;;;;5003243;28;20064;-74
2021/11/06 09:27:03;;;;;;;31.88;21.05;;;9.70;99.90;;;;;;5019114;28;20101;-75
2021/11/06 09:29:29;;;;;;;34.65;19.85;;;9.80;99.90;;;;;;5008969;28;20032;-77
2021/11/06 09:31:54;;;;;;;30.02;20.70;;;9.70;99.90;;;;;;5026057;28;20029;-79
2021/11/06 09:34:38;;;;;;;33.58;21.60;;;9.70;99.90;;;;;;5024317;28;20522;-77
2021/11/06 09:37:43;;;;;;;30.95;20.77;;;9.80;99.90;;;;;;4966864;28;20031;-76
2021/11/06 09:40:11;;;;;;;31.77;21.35;;;9.70;99.90;;;;;;4963195;28;20039;-74
2021/11/06 09:42:39;;;;;;;35.15;21.83;;;9.70;99.90;;;;;;4977609;28;20046;-79
2021/11/06 09:45:06;;;;;;;34.45;20.27;;;9.70;99.90;;;;;;4973903;28;20035;-73
2021/11/06 09:47:32;;;;;;;31.45;21.02;;;9.80;99.90;;;;;;4978042;28;20034;-75
2021/11/06 09:50:13;;;;;;;30.20;20.88;;;9.80;99.90;;;;;;4959125;28;20053;-74
2021/11/06 09:52:39;;;;;;;29.48;20.42;;;9.80;99.90;;;;;;4959224;28;20042;-75
2021/11/06 09:55:05;;;;;;;28.73;20.52;;;9.80;99.90;;;;;;4961810;28;20089;-74
2021/11/06 09:57:31;;;;;;;32.35;21.25;;;9.90;99.90;;;;;;4974454;28;20042;-74
2021/11/06 09:59:57;;;;;;;31.40;21.67;;;10.00;99.90;;;;;;4972320;28;20750;-74
2021/11/06 10:02:23;;;;;;;33.72;22.15;;;10.00;99.90;;;;;;4978512;28;20046;-75
2021/11/06 10:04:52;;;;;;;33.45;22.33;;;9.90;99.90;;;;;;4980505;28;20034;-76
2021/11/06 10:07:26;;;;;;;38.60;23.33;;;10.00;99.90;;;;;;4961243;28;20443;-73
2021/11/06 10:09:58;;;;;;;43.65;25.05;;;10.00;99.90;;;;;;4985265;28;20013;-75
2021/11/06 10:12:42;;;;;;;41.65;23.85;;;10.00;99.90;;;;;;5016512;28;20022;-75
2021/11/06 10:15:09;;;;;;;34.65;22.60;;;10.10;99.90;;;;;;5017694;28;20049;-76
2021/11/06 10:17:38;;;;;;;38.72;23.45;;;10.10;99.90;;;;;;5019995;28;20101;-74
2021/11/06 10:20:33;;;;;;;34.70;23.45;;;10.10;99.90;;;;;;5016429;28;20103;-74
2021/11/06 10:23:03;;;;;;;32.80;22.25;;;10.10;99.90;;;;;;5017782;28;20030;-74
2021/11/06 10:25:29;;;;;;;33.78;21.10;;;10.10;99.90;;;;;;5000130;28;20026;-73
2021/11/06 10:27:57;;;;;;;32.15;21.13;;;10.10;99.90;;;;;;5016838;28;21338;-75
2021/11/06 10:30:40;;;;;;;33.47;23.20;;;10.10;99.90;;;;;;5016179;28;20116;-74
2021/11/06 10:33:12;;;;;;;31.95;22.45;;;10.10;99.90;;;;;;5021502;28;20062;-75
2021/11/06 10:35:54;;;;;;;36.30;24.25;;;10.10;99.90;;;;;;5003656;28;20981;-77
2021/11/06 10:38:40;;;;;;;34.08;23.60;;;10.10;99.90;;;;;;5004697;28;20041;-76
2021/11/06 10:41:09;;;;;;;30.00;21.02;;;10.10;99.90;;;;;;5017106;28;20030;-75
2021/11/06 10:43:36;;;;;;;33.08;22.30;;;10.10;99.90;;;;;;5019377;28;20024;-78
2021/11/06 10:46:04;;;;;;;31.25;21.42;;;10.10;99.90;;;;;;5019585;28;20030;-76
2021/11/06 10:48:35;;;;;;;33.80;21.95;;;10.10;99.90;;;;;;4993165;28;20105;-76
2021/11/06 10:51:09;;;;;;;34.58;21.00;;;10.10;99.90;;;;;;5004144;28;20862;-76
2021/11/06 10:53:48;;;;;;;30.80;20.58;;;10.10;99.90;;;;;;4997147;28;20030;-75
2021/11/06 10:56:13;;;;;;;31.92;21.80;;;10.10;99.90;;;;;;5012327;28;20026;-74
2021/11/06 10:58:40;;;;;;;33.35;22.23;;;10.10;99.90;;;;;;5000972;28;20071;-76
2021/11/06 11:01:10;;;;;;;34.70;22.65;;;10.10;99.90;;;;;;5001571;28;20026;-76
2021/11/06 11:03:45;;;;;;;36.72;22.10;;;10.00;99.90;;;;;;5019201;28;20065;-75
2021/11/06 11:06:17;;;;;;;32.72;22.17;;;10.10;99.90;;;;;;5019200;28;20025;-75
2021/11/06 11:08:49;;;;;;;37.17;23.55;;;10.00;99.90;;;;;;5020768;28;20026;-76
2021/11/06 11:11:22;;;;;;;34.88;21.38;;;10.10;99.90;;;;;;5002898;28;20026;-77
2021/11/06 11:14:19;;;;;;;35.83;23.57;;;10.00;99.90;;;;;;5017460;28;20037;-75
2021/11/06 11:17:17;;;;;;;32.53;21.30;;;10.10;99.90;;;;;;5017808;28;20026;-71
2021/11/06 11:19:46;;;;;;;34.90;23.00;;;10.10;99.90;;;;;;5008426;28;20037;-74
2021/11/06 11:22:29;;;;;;;33.70;21.80;;;10.10;99.90;;;;;;5015347;28;20502;-73
2021/11/06 11:24:55;;;;;;;38.35;23.33;;;10.10;99.90;;;;;;5017033;28;20883;-73
2021/11/06 11:27:21;;;;;;;32.20;21.10;;;10.10;99.90;;;;;;5003721;28;20420;-72
2021/11/06 11:29:48;;;;;;;34.50;22.25;;;10.10;99.90;;;;;;5012623;28;20022;-71
2021/11/06 11:32:17;;;;;;;37.13;24.08;;;10.10;99.90;;;;;;5022405;28;20104;-73
2021/11/06 11:34:59;;;;;;;35.63;21.55;;;10.10;99.90;;;;;;5015346;28;20487;-72
2021/11/06 11:37:25;;;;;;;34.38;21.92;;;10.10;99.90;;;;;;5018091;28;20108;-75
2021/11/06 11:39:53;;;;;;;35.72;22.33;;;10.10;99.90;;;;;;5021802;28;20476;-73
2021/11/06 11:42:40;;;;;;;35.22;20.95;;;10.10;99.90;;;;;;5018664;28;20092;-74
2021/11/06 11:45:43;;;;;;;35.85;22.80;;;10.10;99.90;;;;;;5019931;28;20034;-71
2021/11/06 11:48:18;;;;;;;35.45;22.13;;;10.20;99.90;;;;;;5015280;28;20030;-72
2021/11/06 11:50:45;;;;;;;37.05;22.25;;;10.20;99.90;;;;;;4999772;28;20045;-71
2021/11/06 11:53:25;;;;;;;33.90;21.92;;;10.10;99.90;;;;;;5013669;28;20035;-71
2021/11/06 11:55:51;;;;;;;40.35;23.60;;;10.10;99.90;;;;;;5014001;28;20026;-74
2021/11/06 11:58:22;;;;;;;38.40;22.40;;;10.10;99.90;;;;;;5011747;28;20530;-72
2021/11/06 12:00:51;;;;;;;;;;;10.10;99.90;;;;;;5013391;28;20030;-71
2021/11/06 12:03:40;;;;;;;32.53;21.25;;;10.10;99.90;;;;;;5017174;28;20395;-71
2021/11/06 12:06:29;;;;;;;36.50;21.98;;;10.20;99.90;;;;;;5018318;28;20021;-72
2021/11/06 12:09:16;;;;;;;37.90;21.10;;;10.20;99.90;;;;;;5019551;28;20067;-71
2021/11/06 12:11:49;;;;;;;31.90;20.23;;;10.20;99.90;;;;;;5004188;28;20056;-72
2021/11/06 12:14:24;;;;;;;34.38;21.95;;;10.30;99.90;;;;;;5007066;28;20022;-72
2021/11/06 12:16:58;;;;;;;35.50;20.67;;;10.30;99.90;;;;;;5020774;28;20045;-76
2021/11/06 12:19:40;;;;;;;33.67;20.15;;;10.30;99.90;;;;;;5023759;28;20112;-69
2021/11/06 12:22:15;;;;;;;39.28;22.70;;;10.30;99.90;;;;;;5017104;28;20026;-69
2021/11/06 12:24:43;;;;;;;36.95;21.40;;;10.30;99.90;;;;;;5010358;28;20438;-70
2021/11/06 12:27:12;;;;;;;30.63;21.08;;;10.30;99.90;;;;;;5017209;28;20057;-70
2021/11/06 12:29:51;;;;;;;33.75;21.45;;;10.30;99.90;;;;;;4996822;28;20105;-71
2021/11/06 12:32:28;;;;;;;33.00;20.02;;;10.20;99.90;;;;;;5015091;28;20586;-71
2021/11/06 12:34:57;;;;;;;36.47;21.98;;;10.20;99.90;;;;;;5013437;28;20029;-71
2021/11/06 12:37:38;;;;;;;34.17;21.08;;;10.30;99.90;;;;;;5019472;28;20119;-74
2021/11/06 12:40:17;;;;;;;32.20;19.30;;;10.30;99.90;;;;;;5005883;28;20109;-71
2021/11/06 12:43:03;;;;;;;37.80;21.65;;;10.30;99.90;;;;;;5008657;28;20034;-71
2021/11/06 12:45:29;;;;;;;36.10;22.27;;;10.30;99.90;;;;;;4995106;28;20113;-72
2021/11/06 12:48:16;;;;;;;32.15;20.00;;;10.30;99.90;;;;;;4996190;28;20076;-72
2021/11/06 12:50:44;;;;;;;26.02;17.80;;;10.30;99.90;;;;;;5010860;28;20484;-71